sensor_id;sensor_type;location;lat;lon;timestamp;temperature;humidity
8537;DHT22;4306;50.210;10.628;2024-02-21T00:01:34;6.60;99.90
8537;DHT22;4306;50.210;10.628;2024-02-21T00:04:02;6.60;99.90
8537;DHT22;4306;50.210;10.628;2024-02-21T00:06:30;6.60;99.90
8537;DHT22;4306;50.210;10.628;2024-02-21T00:08:57;6.60;99.90
8537;DHT22;4306;50.210;10.628;2024-02-21T00:11:24;6.60;99.90
8537;DHT22;4306;50.210;10.628;2024-02-21T00:13:51;6.60;99.90
8537;DHT22;4306;50.210;10.628;2024-02-21T00:16:18;6.60;99.90
8537;DHT22;4306;50.210;10.628;2024-02-21T00:18:45;6.60;99.90
8537;DHT22;4306;50.210;10.628;2024-02-21T00:21:12;6.60;99.90
8537;DHT22;4306;50.210;10.628;2024-02-21T00:23:44;6.60;99.90
8537;DHT22;4306;50.210;10.628;2024-02-21T00:26:12;6.60;99.90
8537;DHT22;4306;50.210;10.628;2024-02-21T00:28:39;6.60;99.90
8537;DHT22;4306;50.210;10.628;2024-02-21T00:31:06;6.50;99.90
8537;DHT22;4306;50.210;10.628;2024-02-21T00:33:33;6.60;99.90
8537;DHT22;4306;50.210;10.628;2024-02-21T00:36:00;6.60;99.90
8537;DHT22;4306;50.210;10.628;2024-02-21T00:38:27;6.60;99.90
8537;DHT22;4306;50.210;10.628;2024-02-21T00:40:55;6.50;99.90
8537;DHT22;4306;50.210;10.628;2024-02-21T00:43:22;6.50;99.90
8537;DHT22;4306;50.210;10.628;2024-02-21T00:45:50;6.60;99.90
8537;DHT22;4306;50.210;10.628;2024-02-21T00:48:16;6.60;99.90
8537;DHT22;4306;50.210;10.628;2024-02-21T00:50:43;6.60;99.90
8537;DHT22;4306;50.210;10.628;2024-02-21T00:53:10;6.50;99.90
8537;DHT22;4306;50.210;10.628;2024-02-21T00:55:37;6.50;99.90
8537;DHT22;4306;50.210;10.628;2024-02-21T00:58:07;6.50;99.90
8537;DHT22;4306;50.210;10.628;2024-02-21T01:00:34;6.50;99.90
8537;DHT22;4306;50.210;10.628;2024-02-21T01:03:01;6.50;99.90
8537;DHT22;4306;50.210;10.628;2024-02-21T01:05:28;6.60;99.90
8537;DHT22;4306;50.210;10.628;2024-02-21T01:07:55;6.60;99.90
8537;DHT22;4306;50.210;10.628;2024-02-21T01:10:22;6.50;99.90
8537;DHT22;4306;50.210;10.628;2024-02-21T01:12:50;6.50;99.90
8537;DHT22;4306;50.210;10.628;2024-02-21T01:15:18;6.50;99.90
8537;DHT22;4306;50.210;10.628;2024-02-21T01:17:45;6.50;99.90
8537;DHT22;4306;50.210;10.628;2024-02-21T01:20:12;6.50;99.90
8537;DHT22;4306;50.210;10.628;2024-02-21T01:22:39;6.50;99.90
8537;DHT22;4306;50.210;10.628;2024-02-21T01:25:07;6.50;99.90
8537;DHT22;4306;50.210;10.628;2024-02-21T01:27:35;6.50;99.90
8537;DHT22;4306;50.210;10.628;2024-02-21T01:30:02;6.50;99.90
8537;DHT22;4306;50.210;10.628;2024-02-21T01:32:30;6.50;99.90
8537;DHT22;4306;50.210;10.628;2024-02-21T01:34:57;6.50;99.90
8537;DHT22;4306;50.210;10.628;2024-02-21T01:37:24;6.50;99.90
8537;DHT22;4306;50.210;10.628;2024-02-21T01:39:51;6.50;99.90
8537;DHT22;4306;50.210;10.628;2024-02-21T01:42:18;6.50;99.90
8537;DHT22;4306;50.210;10.628;2024-02-21T01:44:45;6.50;99.90
8537;DHT22;4306;50.210;10.628;2024-02-21T01:47:13;6.60;99.90
8537;DHT22;4306;50.210;10.628;2024-02-21T01:49:43;6.50;99.90
8537;DHT22;4306;50.210;10.628;2024-02-21T01:52:11;6.60;99.90
8537;DHT22;4306;50.210;10.628;2024-02-21T01:54:41;6.50;99.90
8537;DHT22;4306;50.210;10.628;2024-02-21T01:57:08;6.50;99.90
8537;DHT22;4306;50.210;10.628;2024-02-21T01:59:36;6.50;99.90
8537;DHT22;4306;50.210;10.628;2024-02-21T02:02:03;6.50;99.90
8537;DHT22;4306;50.210;10.628;2024-02-21T02:04:30;6.50;99.90
8537;DHT22;4306;50.210;10.628;2024-02-21T02:07:00;6.60;99.90
8537;DHT22;4306;50.210;10.628;2024-02-21T02:09:28;6.60;99.90
8537;DHT22;4306;50.210;10.628;2024-02-21T02:11:55;6.60;99.90
8537;DHT22;4306;50.210;10.628;2024-02-21T02:14:23;6.60;99.90
8537;DHT22;4306;50.210;10.628;2024-02-21T02:16:51;6.60;99.90
8537;DHT22;4306;50.210;10.628;2024-02-21T02:19:18;6.60;99.90
8537;DHT22;4306;50.210;10.628;2024-02-21T02:21:49;6.60;99.90
8537;DHT22;4306;50.210;10.628;2024-02-21T02:24:20;6.60;99.90
8537;DHT22;4306;50.210;10.628;2024-02-21T02:26:47;6.60;99.90
8537;DHT22;4306;50.210;10.628;2024-02-21T02:29:14;6.70;99.90
8537;DHT22;4306;50.210;10.628;2024-02-21T02:31:42;6.60;99.90
8537;DHT22;4306;50.210;10.628;2024-02-21T02:34:09;6.50;99.90
8537;DHT22;4306;50.210;10.628;2024-02-21T02:36:36;6.50;99.90
8537;DHT22;4306;50.210;10.628;2024-02-21T02:39:03;6.50;99.90
8537;DHT22;4306;50.210;10.628;2024-02-21T02:41:31;6.50;99.90
8537;DHT22;4306;50.210;10.628;2024-02-21T02:44:01;6.50;99.90
8537;DHT22;4306;50.210;10.628;2024-02-21T02:46:28;6.50;99.90
8537;DHT22;4306;50.210;10.628;2024-02-21T02:48:55;6.50;99.90
8537;DHT22;4306;50.210;10.628;2024-02-21T02:51:22;6.50;99.90
8537;DHT22;4306;50.210;10.628;2024-02-21T02:53:49;6.40;99.90
8537;DHT22;4306;50.210;10.628;2024-02-21T02:56:16;6.50;99.90
8537;DHT22;4306;50.210;10.628;2024-02-21T02:58:44;6.50;99.90
8537;DHT22;4306;50.210;10.628;2024-02-21T03:01:11;6.30;99.90
8537;DHT22;4306;50.210;10.628;2024-02-21T03:03:39;6.40;99.90
8537;DHT22;4306;50.210;10.628;2024-02-21T03:06:06;6.40;99.90
8537;DHT22;4306;50.210;10.628;2024-02-21T03:08:33;6.30;99.90
8537;DHT22;4306;50.210;10.628;2024-02-21T03:11:00;6.20;99.90
8537;DHT22;4306;50.210;10.628;2024-02-21T03:13:27;6.20;99.90
8537;DHT22;4306;50.210;10.628;2024-02-21T03:15:55;6.20;99.90
8537;DHT22;4306;50.210;10.628;2024-02-21T03:18:22;6.20;99.90
8537;DHT22;4306;50.210;10.628;2024-02-21T03:20:49;6.10;99.90
8537;DHT22;4306;50.210;10.628;2024-02-21T03:23:16;6.10;99.90
8537;DHT22;4306;50.210;10.628;2024-02-21T03:25:43;6.10;99.90
8537;DHT22;4306;50.210;10.628;2024-02-21T03:28:10;6.00;99.90
8537;DHT22;4306;50.210;10.628;2024-02-21T03:30:38;6.10;99.90
8537;DHT22;4306;50.210;10.628;2024-02-21T03:33:06;6.00;99.90
8537;DHT22;4306;50.210;10.628;2024-02-21T03:35:33;6.10;99.90
8537;DHT22;4306;50.210;10.628;2024-02-21T03:38:00;6.00;99.90
8537;DHT22;4306;50.210;10.628;2024-02-21T03:40:27;6.10;99.90
8537;DHT22;4306;50.210;10.628;2024-02-21T03:42:54;6.10;99.90
8537;DHT22;4306;50.210;10.628;2024-02-21T03:45:21;6.10;99.90
8537;DHT22;4306;50.210;10.628;2024-02-21T03:47:48;6.10;99.90
8537;DHT22;4306;50.210;10.628;2024-02-21T03:50:16;6.10;99.90
8537;DHT22;4306;50.210;10.628;2024-02-21T03:52:44;6.10;99.90
8537;DHT22;4306;50.210;10.628;2024-02-21T03:55:11;6.20;99.90
8537;DHT22;4306;50.210;10.628;2024-02-21T03:57:38;6.20;99.90
8537;DHT22;4306;50.210;10.628;2024-02-21T04:00:06;6.20;99.90
8537;DHT22;4306;50.210;10.628;2024-02-21T04:02:37;6.20;99.90
8537;DHT22;4306;50.210;10.628;2024-02-21T04:05:04;6.20;99.90
8537;DHT22;4306;50.210;10.628;2024-02-21T04:07:33;6.30;99.90
8537;DHT22;4306;50.210;10.628;2024-02-21T04:10:00;6.30;99.90
8537;DHT22;4306;50.210;10.628;2024-02-21T04:12:27;6.30;99.90
8537;DHT22;4306;50.210;10.628;2024-02-21T04:14:54;6.30;99.90
8537;DHT22;4306;50.210;10.628;2024-02-21T04:17:21;6.40;99.90
8537;DHT22;4306;50.210;10.628;2024-02-21T04:19:48;6.30;99.90
8537;DHT22;4306;50.210;10.628;2024-02-21T04:22:15;6.40;99.90
8537;DHT22;4306;50.210;10.628;2024-02-21T04:24:43;6.40;99.90
8537;DHT22;4306;50.210;10.628;2024-02-21T04:27:10;6.30;99.90
8537;DHT22;4306;50.210;10.628;2024-02-21T04:29:37;6.30;99.90
8537;DHT22;4306;50.210;10.628;2024-02-21T04:32:05;6.30;99.90
8537;DHT22;4306;50.210;10.628;2024-02-21T04:34:33;6.30;99.90
8537;DHT22;4306;50.210;10.628;2024-02-21T04:37:00;6.30;99.90
8537;DHT22;4306;50.210;10.628;2024-02-21T04:39:27;6.30;99.90
8537;DHT22;4306;50.210;10.628;2024-02-21T04:41:55;6.20;99.90
8537;DHT22;4306;50.210;10.628;2024-02-21T04:44:22;6.20;99.90
8537;DHT22;4306;50.210;10.628;2024-02-21T04:46:49;6.30;99.90
8537;DHT22;4306;50.210;10.628;2024-02-21T04:49:16;6.20;99.90
8537;DHT22;4306;50.210;10.628;2024-02-21T04:51:44;6.20;99.90
8537;DHT22;4306;50.210;10.628;2024-02-21T04:54:11;6.20;99.90
8537;DHT22;4306;50.210;10.628;2024-02-21T04:56:38;6.20;99.90
8537;DHT22;4306;50.210;10.628;2024-02-21T04:59:06;6.10;99.90
8537;DHT22;4306;50.210;10.628;2024-02-21T05:01:33;6.10;99.90
8537;DHT22;4306;50.210;10.628;2024-02-21T05:04:00;6.10;99.90
8537;DHT22;4306;50.210;10.628;2024-02-21T05:06:28;6.10;99.90
8537;DHT22;4306;50.210;10.628;2024-02-21T05:08:55;6.10;99.90
8537;DHT22;4306;50.210;10.628;2024-02-21T05:11:23;6.10;99.90
8537;DHT22;4306;50.210;10.628;2024-02-21T05:13:50;6.20;99.90
8537;DHT22;4306;50.210;10.628;2024-02-21T05:16:18;6.20;99.90
8537;DHT22;4306;50.210;10.628;2024-02-21T05:18:45;6.20;99.90
8537;DHT22;4306;50.210;10.628;2024-02-21T05:21:13;6.10;99.90
8537;DHT22;4306;50.210;10.628;2024-02-21T05:23:40;6.10;99.90
8537;DHT22;4306;50.210;10.628;2024-02-21T05:26:07;6.10;99.90
8537;DHT22;4306;50.210;10.628;2024-02-21T05:28:34;6.10;99.90
8537;DHT22;4306;50.210;10.628;2024-02-21T05:31:01;6.20;99.90
8537;DHT22;4306;50.210;10.628;2024-02-21T05:33:29;6.10;99.90
8537;DHT22;4306;50.210;10.628;2024-02-21T05:35:56;6.10;99.90
8537;DHT22;4306;50.210;10.628;2024-02-21T05:38:23;6.10;99.90
8537;DHT22;4306;50.210;10.628;2024-02-21T05:40:50;6.10;99.90
8537;DHT22;4306;50.210;10.628;2024-02-21T05:43:17;6.10;99.90
8537;DHT22;4306;50.210;10.628;2024-02-21T05:45:44;6.00;99.90
8537;DHT22;4306;50.210;10.628;2024-02-21T05:48:11;6.10;99.90
8537;DHT22;4306;50.210;10.628;2024-02-21T05:50:39;6.00;99.90
8537;DHT22;4306;50.210;10.628;2024-02-21T05:53:06;6.10;99.90
8537;DHT22;4306;50.210;10.628;2024-02-21T05:55:35;6.00;99.90
8537;DHT22;4306;50.210;10.628;2024-02-21T05:58:03;6.00;99.90
8537;DHT22;4306;50.210;10.628;2024-02-21T06:00:31;6.00;99.90
8537;DHT22;4306;50.210;10.628;2024-02-21T06:02:59;6.00;99.90
8537;DHT22;4306;50.210;10.628;2024-02-21T06:05:26;5.90;99.90
8537;DHT22;4306;50.210;10.628;2024-02-21T06:07:54;5.80;99.90
8537;DHT22;4306;50.210;10.628;2024-02-21T06:10:21;5.90;99.90
8537;DHT22;4306;50.210;10.628;2024-02-21T06:12:48;6.00;99.90
8537;DHT22;4306;50.210;10.628;2024-02-21T06:15:15;6.10;99.90
8537;DHT22;4306;50.210;10.628;2024-02-21T06:17:42;6.00;99.90
8537;DHT22;4306;50.210;10.628;2024-02-21T06:20:10;6.10;99.90
8537;DHT22;4306;50.210;10.628;2024-02-21T06:22:37;6.10;99.90
8537;DHT22;4306;50.210;10.628;2024-02-21T06:25:06;6.10;99.90
8537;DHT22;4306;50.210;10.628;2024-02-21T06:27:34;6.10;99.90
8537;DHT22;4306;50.210;10.628;2024-02-21T06:30:01;6.20;99.90
8537;DHT22;4306;50.210;10.628;2024-02-21T06:32:28;6.10;99.90
8537;DHT22;4306;50.210;10.628;2024-02-21T06:34:55;6.20;99.90
8537;DHT22;4306;50.210;10.628;2024-02-21T06:37:22;6.20;99.90
8537;DHT22;4306;50.210;10.628;2024-02-21T06:39:50;6.10;99.90
8537;DHT22;4306;50.210;10.628;2024-02-21T06:42:18;6.10;99.90
8537;DHT22;4306;50.210;10.628;2024-02-21T06:44:47;6.10;99.90
8537;DHT22;4306;50.210;10.628;2024-02-21T06:47:14;6.20;99.90
8537;DHT22;4306;50.210;10.628;2024-02-21T06:49:41;6.20;99.90
8537;DHT22;4306;50.210;10.628;2024-02-21T06:52:08;6.20;99.90
8537;DHT22;4306;50.210;10.628;2024-02-21T06:54:35;6.30;99.90
8537;DHT22;4306;50.210;10.628;2024-02-21T06:57:02;6.30;99.90
8537;DHT22;4306;50.210;10.628;2024-02-21T06:59:30;6.20;99.90
8537;DHT22;4306;50.210;10.628;2024-02-21T07:01:57;6.30;99.90
8537;DHT22;4306;50.210;10.628;2024-02-21T07:04:26;6.20;99.90
8537;DHT22;4306;50.210;10.628;2024-02-21T07:06:54;6.30;99.90
8537;DHT22;4306;50.210;10.628;2024-02-21T07:09:21;6.30;99.90
8537;DHT22;4306;50.210;10.628;2024-02-21T07:11:48;6.30;99.90
8537;DHT22;4306;50.210;10.628;2024-02-21T07:14:15;6.30;99.90
8537;DHT22;4306;50.210;10.628;2024-02-21T07:16:45;6.40;99.90
8537;DHT22;4306;50.210;10.628;2024-02-21T07:19:12;6.40;99.90
8537;DHT22;4306;50.210;10.628;2024-02-21T07:21:39;6.40;99.90
8537;DHT22;4306;50.210;10.628;2024-02-21T07:24:07;6.40;99.90
8537;DHT22;4306;50.210;10.628;2024-02-21T07:26:34;6.40;99.90
8537;DHT22;4306;50.210;10.628;2024-02-21T07:29:01;6.40;99.90
8537;DHT22;4306;50.210;10.628;2024-02-21T07:31:28;6.50;99.90
8537;DHT22;4306;50.210;10.628;2024-02-21T07:33:57;6.50;99.90
8537;DHT22;4306;50.210;10.628;2024-02-21T07:36:29;6.50;99.90
8537;DHT22;4306;50.210;10.628;2024-02-21T07:38:58;6.50;99.90
8537;DHT22;4306;50.210;10.628;2024-02-21T07:41:25;6.60;99.90
8537;DHT22;4306;50.210;10.628;2024-02-21T07:43:54;6.60;99.90
8537;DHT22;4306;50.210;10.628;2024-02-21T07:46:22;6.70;99.90
8537;DHT22;4306;50.210;10.628;2024-02-21T07:48:51;6.70;99.90
8537;DHT22;4306;50.210;10.628;2024-02-21T07:51:19;6.70;99.90
8537;DHT22;4306;50.210;10.628;2024-02-21T07:53:46;6.80;99.90
8537;DHT22;4306;50.210;10.628;2024-02-21T07:56:14;6.80;99.90
8537;DHT22;4306;50.210;10.628;2024-02-21T07:58:42;6.90;99.90
8537;DHT22;4306;50.210;10.628;2024-02-21T08:01:11;6.90;99.90
8537;DHT22;4306;50.210;10.628;2024-02-21T08:03:38;6.80;99.90
8537;DHT22;4306;50.210;10.628;2024-02-21T08:06:05;6.90;99.90
8537;DHT22;4306;50.210;10.628;2024-02-21T08:08:33;6.90;99.90
8537;DHT22;4306;50.210;10.628;2024-02-21T08:11:00;7.00;99.90
8537;DHT22;4306;50.210;10.628;2024-02-21T08:13:27;7.20;99.90
8537;DHT22;4306;50.210;10.628;2024-02-21T08:15:55;7.10;99.90
8537;DHT22;4306;50.210;10.628;2024-02-21T08:18:22;7.20;99.90
8537;DHT22;4306;50.210;10.628;2024-02-21T08:20:49;7.20;99.90
8537;DHT22;4306;50.210;10.628;2024-02-21T08:23:17;7.10;99.90
8537;DHT22;4306;50.210;10.628;2024-02-21T08:25:46;7.20;99.90
8537;DHT22;4306;50.210;10.628;2024-02-21T08:28:14;7.10;99.90
8537;DHT22;4306;50.210;10.628;2024-02-21T08:30:41;7.10;99.90
8537;DHT22;4306;50.210;10.628;2024-02-21T08:33:13;7.20;99.90
8537;DHT22;4306;50.210;10.628;2024-02-21T08:35:50;7.00;99.90
8537;DHT22;4306;50.210;10.628;2024-02-21T08:38:18;7.10;99.90
8537;DHT22;4306;50.210;10.628;2024-02-21T08:40:46;7.10;99.90
8537;DHT22;4306;50.210;10.628;2024-02-21T08:43:13;7.20;99.90
8537;DHT22;4306;50.210;10.628;2024-02-21T08:45:40;7.10;99.90
8537;DHT22;4306;50.210;10.628;2024-02-21T08:48:07;7.20;99.90
8537;DHT22;4306;50.210;10.628;2024-02-21T08:50:34;7.10;99.90
8537;DHT22;4306;50.210;10.628;2024-02-21T08:53:03;7.10;99.90
8537;DHT22;4306;50.210;10.628;2024-02-21T08:55:30;7.00;99.90
8537;DHT22;4306;50.210;10.628;2024-02-21T08:58:00;7.00;99.90
8537;DHT22;4306;50.210;10.628;2024-02-21T09:00:29;7.00;99.90
8537;DHT22;4306;50.210;10.628;2024-02-21T09:02:56;7.10;99.90
8537;DHT22;4306;50.210;10.628;2024-02-21T09:05:23;7.20;99.90
8537;DHT22;4306;50.210;10.628;2024-02-21T09:07:50;7.20;99.90
8537;DHT22;4306;50.210;10.628;2024-02-21T09:10:17;7.30;99.90
8537;DHT22;4306;50.210;10.628;2024-02-21T09:12:44;7.30;99.90
8537;DHT22;4306;50.210;10.628;2024-02-21T09:15:13;7.40;99.90
8537;DHT22;4306;50.210;10.628;2024-02-21T09:17:41;7.40;99.90
8537;DHT22;4306;50.210;10.628;2024-02-21T09:20:08;7.50;99.90
8537;DHT22;4306;50.210;10.628;2024-02-21T09:22:37;7.60;99.90
8537;DHT22;4306;50.210;10.628;2024-02-21T09:25:06;7.70;99.90
8537;DHT22;4306;50.210;10.628;2024-02-21T09:27:35;7.60;99.90
8537;DHT22;4306;50.210;10.628;2024-02-21T09:30:02;7.70;99.90
8537;DHT22;4306;50.210;10.628;2024-02-21T09:32:32;7.60;99.90
8537;DHT22;4306;50.210;10.628;2024-02-21T09:34:59;7.60;99.90
8537;DHT22;4306;50.210;10.628;2024-02-21T09:37:26;7.70;99.90
8537;DHT22;4306;50.210;10.628;2024-02-21T09:39:53;7.80;99.90
8537;DHT22;4306;50.210;10.628;2024-02-21T09:42:20;7.90;99.90
8537;DHT22;4306;50.210;10.628;2024-02-21T09:44:48;8.00;99.90
8537;DHT22;4306;50.210;10.628;2024-02-21T09:47:19;8.00;99.90
8537;DHT22;4306;50.210;10.628;2024-02-21T09:49:51;8.00;99.90
8537;DHT22;4306;50.210;10.628;2024-02-21T09:52:19;8.00;99.90
8537;DHT22;4306;50.210;10.628;2024-02-21T09:54:47;8.00;99.90
8537;DHT22;4306;50.210;10.628;2024-02-21T09:57:15;7.90;99.90
8537;DHT22;4306;50.210;10.628;2024-02-21T09:59:43;8.00;99.90
8537;DHT22;4306;50.210;10.628;2024-02-21T10:02:11;8.00;99.90
8537;DHT22;4306;50.210;10.628;2024-02-21T10:04:39;8.10;99.90
8537;DHT22;4306;50.210;10.628;2024-02-21T10:07:08;8.10;99.90
8537;DHT22;4306;50.210;10.628;2024-02-21T10:09:36;8.20;99.90
8537;DHT22;4306;50.210;10.628;2024-02-21T10:12:11;8.30;99.90
8537;DHT22;4306;50.210;10.628;2024-02-21T10:14:38;8.30;99.90
8537;DHT22;4306;50.210;10.628;2024-02-21T10:17:05;8.30;99.90
8537;DHT22;4306;50.210;10.628;2024-02-21T10:19:35;8.40;99.90
8537;DHT22;4306;50.210;10.628;2024-02-21T10:22:03;8.40;99.90
8537;DHT22;4306;50.210;10.628;2024-02-21T10:24:34;8.40;99.90
8537;DHT22;4306;50.210;10.628;2024-02-21T10:27:05;8.40;99.90
8537;DHT22;4306;50.210;10.628;2024-02-21T10:29:33;8.60;99.90
8537;DHT22;4306;50.210;10.628;2024-02-21T10:32:05;8.70;99.90
8537;DHT22;4306;50.210;10.628;2024-02-21T10:34:33;8.60;99.90
8537;DHT22;4306;50.210;10.628;2024-02-21T10:37:02;8.60;99.90
8537;DHT22;4306;50.210;10.628;2024-02-21T10:39:29;8.50;99.90
8537;DHT22;4306;50.210;10.628;2024-02-21T10:42:00;8.50;99.90
8537;DHT22;4306;50.210;10.628;2024-02-21T10:44:30;8.60;99.90
8537;DHT22;4306;50.210;10.628;2024-02-21T10:46:59;8.70;99.90
8537;DHT22;4306;50.210;10.628;2024-02-21T10:49:27;8.60;99.90
8537;DHT22;4306;50.210;10.628;2024-02-21T10:52:15;8.80;99.90
8537;DHT22;4306;50.210;10.628;2024-02-21T10:55:19;8.80;99.90
8537;DHT22;4306;50.210;10.628;2024-02-21T10:57:50;8.90;99.90
8537;DHT22;4306;50.210;10.628;2024-02-21T11:00:18;9.00;99.90
8537;DHT22;4306;50.210;10.628;2024-02-21T11:02:47;8.90;99.90
8537;DHT22;4306;50.210;10.628;2024-02-21T11:05:15;8.90;99.90
8537;DHT22;4306;50.210;10.628;2024-02-21T11:07:43;9.10;99.90
8537;DHT22;4306;50.210;10.628;2024-02-21T11:10:20;9.00;99.90
8537;DHT22;4306;50.210;10.628;2024-02-21T11:12:52;9.10;99.90
8537;DHT22;4306;50.210;10.628;2024-02-21T11:15:25;9.20;99.90
8537;DHT22;4306;50.210;10.628;2024-02-21T11:17:56;9.40;99.90
8537;DHT22;4306;50.210;10.628;2024-02-21T11:20:32;9.60;99.90
8537;DHT22;4306;50.210;10.628;2024-02-21T11:23:00;9.70;99.90
8537;DHT22;4306;50.210;10.628;2024-02-21T11:25:28;9.60;99.90
8537;DHT22;4306;50.210;10.628;2024-02-21T11:28:01;9.60;99.90
8537;DHT22;4306;50.210;10.628;2024-02-21T11:30:30;9.80;99.90
8537;DHT22;4306;50.210;10.628;2024-02-21T11:33:01;9.80;99.90
8537;DHT22;4306;50.210;10.628;2024-02-21T11:35:32;9.80;99.90
8537;DHT22;4306;50.210;10.628;2024-02-21T11:38:10;9.80;99.90
8537;DHT22;4306;50.210;10.628;2024-02-21T11:40:40;9.80;99.90
8537;DHT22;4306;50.210;10.628;2024-02-21T11:43:09;9.70;99.90
8537;DHT22;4306;50.210;10.628;2024-02-21T11:45:36;9.50;99.90
8537;DHT22;4306;50.210;10.628;2024-02-21T11:48:06;9.60;99.90
8537;DHT22;4306;50.210;10.628;2024-02-21T11:50:34;9.70;99.90
8537;DHT22;4306;50.210;10.628;2024-02-21T11:53:02;9.70;99.90
8537;DHT22;4306;50.210;10.628;2024-02-21T11:55:29;9.70;99.90
8537;DHT22;4306;50.210;10.628;2024-02-21T11:57:56;9.70;99.90
8537;DHT22;4306;50.210;10.628;2024-02-21T12:00:26;9.70;99.90
8537;DHT22;4306;50.210;10.628;2024-02-21T12:02:53;9.70;99.90
8537;DHT22;4306;50.210;10.628;2024-02-21T12:05:27;9.80;99.90
8537;DHT22;4306;50.210;10.628;2024-02-21T12:07:55;9.70;99.90
8537;DHT22;4306;50.210;10.628;2024-02-21T12:10:23;9.70;99.90
8537;DHT22;4306;50.210;10.628;2024-02-21T12:12:52;9.70;99.90
8537;DHT22;4306;50.210;10.628;2024-02-21T12:15:25;9.60;99.90
8537;DHT22;4306;50.210;10.628;2024-02-21T12:17:52;9.70;99.90
8537;DHT22;4306;50.210;10.628;2024-02-21T12:20:20;9.80;99.90
8537;DHT22;4306;50.210;10.628;2024-02-21T12:22:49;9.80;99.90
8537;DHT22;4306;50.210;10.628;2024-02-21T12:25:17;9.80;99.90
8537;DHT22;4306;50.210;10.628;2024-02-21T12:27:45;9.90;99.90
8537;DHT22;4306;50.210;10.628;2024-02-21T12:30:12;9.90;99.90
8537;DHT22;4306;50.210;10.628;2024-02-21T12:32:41;9.80;99.90
8537;DHT22;4306;50.210;10.628;2024-02-21T12:35:23;9.90;99.90
8537;DHT22;4306;50.210;10.628;2024-02-21T12:37:50;9.90;99.90
8537;DHT22;4306;50.210;10.628;2024-02-21T12:40:17;10.10;99.90
8537;DHT22;4306;50.210;10.628;2024-02-21T12:42:44;10.10;99.90
8537;DHT22;4306;50.210;10.628;2024-02-21T12:45:12;10.10;99.90
8537;DHT22;4306;50.210;10.628;2024-02-21T12:47:42;10.10;99.90
8537;DHT22;4306;50.210;10.628;2024-02-21T12:50:09;10.10;99.90
8537;DHT22;4306;50.210;10.628;2024-02-21T12:52:36;10.20;99.90
8537;DHT22;4306;50.210;10.628;2024-02-21T12:55:03;10.10;99.90
8537;DHT22;4306;50.210;10.628;2024-02-21T12:57:31;10.00;99.90
8537;DHT22;4306;50.210;10.628;2024-02-21T12:59:58;10.00;99.90
8537;DHT22;4306;50.210;10.628;2024-02-21T13:02:25;10.10;99.90
8537;DHT22;4306;50.210;10.628;2024-02-21T13:04:54;10.00;99.90
8537;DHT22;4306;50.210;10.628;2024-02-21T13:07:21;10.10;99.90
8537;DHT22;4306;50.210;10.628;2024-02-21T13:09:48;10.20;99.90
8537;DHT22;4306;50.210;10.628;2024-02-21T13:12:15;10.30;99.90
8537;DHT22;4306;50.210;10.628;2024-02-21T13:14:42;10.20;99.90
8537;DHT22;4306;50.210;10.628;2024-02-21T13:17:09;10.10;99.90
8537;DHT22;4306;50.210;10.628;2024-02-21T13:19:36;10.20;99.90
8537;DHT22;4306;50.210;10.628;2024-02-21T13:22:05;10.20;99.90
8537;DHT22;4306;50.210;10.628;2024-02-21T13:24:32;10.20;99.90
8537;DHT22;4306;50.210;10.628;2024-02-21T13:26:59;10.30;99.90
8537;DHT22;4306;50.210;10.628;2024-02-21T13:29:26;10.40;99.90
8537;DHT22;4306;50.210;10.628;2024-02-21T13:31:54;10.40;99.90
8537;DHT22;4306;50.210;10.628;2024-02-21T13:34:21;10.50;99.90
8537;DHT22;4306;50.210;10.628;2024-02-21T13:36:48;10.40;99.90
8537;DHT22;4306;50.210;10.628;2024-02-21T13:39:16;10.40;99.90
8537;DHT22;4306;50.210;10.628;2024-02-21T13:41:44;10.30;99.90
8537;DHT22;4306;50.210;10.628;2024-02-21T13:44:12;10.30;99.90
8537;DHT22;4306;50.210;10.628;2024-02-21T13:46:39;10.10;99.90
8537;DHT22;4306;50.210;10.628;2024-02-21T13:49:06;10.30;99.90
8537;DHT22;4306;50.210;10.628;2024-02-21T13:51:33;10.40;99.90
8537;DHT22;4306;50.210;10.628;2024-02-21T13:54:02;10.30;99.90
8537;DHT22;4306;50.210;10.628;2024-02-21T13:56:31;10.40;99.90
8537;DHT22;4306;50.210;10.628;2024-02-21T13:58:58;10.40;99.90
8537;DHT22;4306;50.210;10.628;2024-02-21T14:01:26;10.30;99.90
8537;DHT22;4306;50.210;10.628;2024-02-21T14:03:54;10.30;99.90
8537;DHT22;4306;50.210;10.628;2024-02-21T14:06:21;10.30;99.90
8537;DHT22;4306;50.210;10.628;2024-02-21T14:08:48;10.40;99.90
8537;DHT22;4306;50.210;10.628;2024-02-21T14:11:15;10.50;99.90
8537;DHT22;4306;50.210;10.628;2024-02-21T14:13:44;10.50;99.90
8537;DHT22;4306;50.210;10.628;2024-02-21T14:16:11;10.40;99.90
8537;DHT22;4306;50.210;10.628;2024-02-21T14:18:39;10.40;99.90
8537;DHT22;4306;50.210;10.628;2024-02-21T14:21:07;10.50;99.90
8537;DHT22;4306;50.210;10.628;2024-02-21T14:23:36;10.50;99.90
8537;DHT22;4306;50.210;10.628;2024-02-21T14:26:03;10.50;99.90
8537;DHT22;4306;50.210;10.628;2024-02-21T14:28:31;10.30;99.90
8537;DHT22;4306;50.210;10.628;2024-02-21T14:31:00;10.40;99.90
8537;DHT22;4306;50.210;10.628;2024-02-21T14:33:29;10.50;99.90
8537;DHT22;4306;50.210;10.628;2024-02-21T14:35:56;10.50;99.90
8537;DHT22;4306;50.210;10.628;2024-02-21T14:38:23;10.40;99.90
8537;DHT22;4306;50.210;10.628;2024-02-21T14:40:51;10.40;99.90
8537;DHT22;4306;50.210;10.628;2024-02-21T14:43:18;10.50;99.90
8537;DHT22;4306;50.210;10.628;2024-02-21T14:45:47;10.40;99.90
8537;DHT22;4306;50.210;10.628;2024-02-21T14:48:15;10.40;99.90
8537;DHT22;4306;50.210;10.628;2024-02-21T14:50:43;10.40;99.90
8537;DHT22;4306;50.210;10.628;2024-02-21T14:53:10;10.40;99.90
8537;DHT22;4306;50.210;10.628;2024-02-21T14:55:37;10.40;99.90
8537;DHT22;4306;50.210;10.628;2024-02-21T14:58:06;10.50;99.90
8537;DHT22;4306;50.210;10.628;2024-02-21T15:08:27;10.10;99.90
8537;DHT22;4306;50.210;10.628;2024-02-21T15:10:55;10.00;99.90
8537;DHT22;4306;50.210;10.628;2024-02-21T15:13:22;10.10;99.90
8537;DHT22;4306;50.210;10.628;2024-02-21T15:15:49;10.20;99.90
8537;DHT22;4306;50.210;10.628;2024-02-21T15:18:17;10.10;99.90
8537;DHT22;4306;50.210;10.628;2024-02-21T15:20:44;10.10;99.90
8537;DHT22;4306;50.210;10.628;2024-02-21T15:23:12;10.00;99.70
8537;DHT22;4306;50.210;10.628;2024-02-21T15:25:40;10.00;99.90
8537;DHT22;4306;50.210;10.628;2024-02-21T15:28:08;10.00;99.90
8537;DHT22;4306;50.210;10.628;2024-02-21T15:30:36;10.00;99.90
8537;DHT22;4306;50.210;10.628;2024-02-21T15:33:03;10.00;99.90
8537;DHT22;4306;50.210;10.628;2024-02-21T15:35:31;10.00;99.90
8537;DHT22;4306;50.210;10.628;2024-02-21T15:37:59;9.90;99.90
8537;DHT22;4306;50.210;10.628;2024-02-21T15:40:26;9.90;99.90
8537;DHT22;4306;50.210;10.628;2024-02-21T15:42:54;9.80;99.90
8537;DHT22;4306;50.210;10.628;2024-02-21T15:45:21;9.90;99.90
8537;DHT22;4306;50.210;10.628;2024-02-21T15:47:49;9.70;99.90
8537;DHT22;4306;50.210;10.628;2024-02-21T15:50:16;9.70;99.90
8537;DHT22;4306;50.210;10.628;2024-02-21T15:52:44;9.80;99.90
8537;DHT22;4306;50.210;10.628;2024-02-21T15:55:11;9.80;99.90
8537;DHT22;4306;50.210;10.628;2024-02-21T15:57:39;9.70;99.90
8537;DHT22;4306;50.210;10.628;2024-02-21T16:00:08;9.70;99.80
8537;DHT22;4306;50.210;10.628;2024-02-21T16:02:38;9.80;99.90
8537;DHT22;4306;50.210;10.628;2024-02-21T16:05:07;9.70;99.90
8537;DHT22;4306;50.210;10.628;2024-02-21T16:15:18;9.70;99.70
8537;DHT22;4306;50.210;10.628;2024-02-21T16:17:45;9.60;99.60
8537;DHT22;4306;50.210;10.628;2024-02-21T16:20:13;9.60;99.40